createdAt,value
2019-05-23T00:00:30.435Z,99.99
2019-05-23T00:01:30.404Z,99.99
2019-05-23T00:02:30.375Z,99.99
2019-05-23T00:03:30.345Z,99.99
2019-05-23T00:04:30.316Z,99.99
2019-05-23T00:05:30.286Z,99.99
2019-05-23T00:06:30.256Z,99.99
2019-05-23T00:07:30.228Z,99.99
2019-05-23T00:08:30.199Z,99.99
2019-05-23T00:09:30.173Z,99.99
2019-05-23T00:10:30.138Z,99.99
2019-05-23T00:11:30.109Z,99.99
2019-05-23T00:12:30.079Z,99.99
2019-05-23T00:13:30.049Z,99.99
2019-05-23T00:14:30.021Z,99.99
2019-05-23T00:15:29.992Z,99.99
2019-05-23T00:16:29.962Z,99.99
2019-05-23T00:17:29.932Z,99.99
2019-05-23T00:18:29.901Z,99.99
2019-05-23T00:19:29.888Z,99.99
2019-05-23T00:20:29.842Z,99.99
2019-05-23T00:21:29.815Z,99.99
2019-05-23T00:22:29.785Z,99.99
2019-05-23T00:23:29.755Z,99.99
2019-05-23T00:24:29.725Z,99.99
2019-05-23T00:25:29.711Z,99.99
2019-05-23T00:26:29.665Z,99.99
2019-05-23T00:27:29.637Z,99.99
2019-05-23T00:28:29.607Z,99.99
2019-05-23T00:29:29.577Z,99.99
2019-05-23T00:30:29.548Z,99.99
2019-05-23T00:31:29.521Z,99.99
2019-05-23T00:32:29.488Z,99.99
2019-05-23T00:33:29.458Z,99.99
2019-05-23T00:34:29.449Z,99.99
2019-05-23T00:35:29.398Z,99.99
2019-05-23T00:36:29.369Z,99.99
2019-05-23T00:37:29.342Z,99.99
2019-05-23T00:38:29.309Z,99.99
2019-05-23T00:39:29.282Z,99.99
2019-05-23T00:40:29.250Z,99.99
2019-05-23T00:41:29.221Z,99.99
2019-05-23T00:42:29.189Z,99.99
2019-05-23T00:43:29.161Z,99.99
2019-05-23T00:44:29.132Z,99.99
2019-05-23T00:45:29.113Z,99.99
2019-05-23T00:46:29.080Z,99.99
2019-05-23T00:47:29.072Z,99.99
2019-05-23T00:48:29.018Z,99.99
2019-05-23T00:49:29.017Z,99.99
2019-05-23T00:50:28.951Z,99.99
2019-05-23T00:51:28.923Z,99.99
2019-05-23T00:52:28.897Z,99.99
2019-05-23T00:53:28.863Z,99.99
2019-05-23T00:54:28.833Z,99.99
2019-05-23T00:55:29.013Z,99.99
2019-05-23T00:56:28.772Z,99.99
2019-05-23T00:57:28.743Z,99.99
2019-05-23T00:58:28.713Z,99.99
2019-05-23T00:59:28.684Z,99.99
2019-05-23T01:00:28.656Z,99.99
2019-05-23T01:01:28.624Z,99.99
2019-05-23T01:02:28.595Z,99.99
2019-05-23T01:03:28.580Z,99.99
2019-05-23T01:04:28.533Z,99.99
2019-05-23T01:05:28.505Z,99.99
2019-05-23T01:06:28.478Z,99.99
2019-05-23T01:07:28.447Z,99.99
2019-05-23T01:08:28.416Z,99.99
2019-05-23T01:09:28.388Z,99.99
2019-05-23T01:10:28.354Z,99.99
2019-05-23T01:11:28.324Z,99.99
2019-05-23T01:12:28.299Z,99.99
2019-05-23T01:13:28.265Z,99.99
2019-05-23T01:14:28.242Z,99.99
2019-05-23T01:15:28.204Z,99.99
2019-05-23T01:16:28.173Z,99.99
2019-05-23T01:17:28.144Z,99.99
2019-05-23T01:18:28.112Z,99.99
2019-05-23T01:19:28.083Z,99.99
2019-05-23T01:20:28.053Z,99.99
2019-05-23T01:21:28.027Z,99.99
2019-05-23T01:22:27.992Z,99.99
2019-05-23T01:23:27.967Z,99.99
2019-05-23T01:24:27.933Z,99.99
2019-05-23T01:25:27.903Z,99.99
2019-05-23T01:26:27.873Z,99.99
2019-05-23T01:27:27.910Z,99.99
2019-05-23T01:28:27.814Z,99.99
2019-05-23T01:29:37.129Z,99.99
2019-05-23T01:30:27.750Z,99.99
2019-05-23T01:31:27.742Z,99.99
2019-05-23T01:32:27.710Z,99.99
2019-05-23T01:33:27.663Z,99.99
2019-05-23T01:34:27.632Z,99.99
2019-05-23T01:35:27.601Z,99.99
2019-05-23T01:36:27.571Z,99.99
2019-05-23T01:37:27.539Z,99.99
2019-05-23T01:38:27.511Z,99.99
2019-05-23T01:39:27.479Z,99.99
2019-05-23T01:40:27.451Z,99.99
2019-05-23T01:41:27.426Z,99.99
2019-05-23T01:42:27.391Z,99.99
2019-05-23T01:43:27.359Z,99.99
2019-05-23T01:44:27.329Z,99.99
2019-05-23T01:45:27.298Z,99.99
2019-05-23T01:46:27.269Z,99.99
2019-05-23T01:47:27.237Z,99.99
2019-05-23T01:48:27.207Z,99.99
2019-05-23T01:49:27.181Z,99.99
2019-05-23T01:50:27.154Z,99.99
2019-05-23T01:51:27.117Z,99.99
2019-05-23T01:52:27.092Z,99.99
2019-05-23T01:53:27.056Z,99.99
2019-05-23T01:54:27.024Z,99.99
2019-05-23T01:55:26.995Z,99.99
2019-05-23T01:56:26.963Z,99.99
2019-05-23T01:57:26.934Z,99.99
2019-05-23T01:58:26.902Z,99.99
2019-05-23T01:59:26.871Z,99.99
2019-05-23T02:00:26.843Z,99.99
2019-05-23T02:01:26.811Z,99.99
2019-05-23T02:02:26.782Z,99.99
2019-05-23T02:03:26.749Z,99.99
2019-05-23T02:04:26.733Z,99.99
2019-05-23T02:05:26.690Z,99.99
2019-05-23T02:06:26.662Z,99.99
2019-05-23T02:07:26.639Z,99.99
2019-05-23T02:08:26.600Z,99.99
2019-05-23T02:09:26.572Z,99.99
2019-05-23T02:10:26.537Z,99.99
2019-05-23T02:11:26.506Z,99.99
2019-05-23T02:12:26.478Z,99.99
2019-05-23T02:13:26.446Z,99.99
2019-05-23T02:14:26.415Z,99.99
2019-05-23T02:15:26.383Z,99.99
2019-05-23T02:16:26.354Z,99.99
2019-05-23T02:17:26.327Z,99.99
2019-05-23T02:18:26.292Z,99.99
2019-05-23T02:19:26.261Z,99.99
2019-05-23T02:20:26.233Z,99.99
2019-05-23T02:21:26.203Z,99.99
2019-05-23T02:22:26.172Z,99.99
2019-05-23T02:23:26.142Z,99.99
2019-05-23T02:24:26.119Z,99.99
2019-05-23T02:25:26.098Z,99.99
2019-05-23T02:26:26.048Z,99.99
2019-05-23T02:27:26.019Z,99.99
2019-05-23T02:28:25.994Z,99.99
2019-05-23T02:29:26.101Z,99.99
2019-05-23T02:30:35.750Z,99.99
2019-05-23T02:31:25.894Z,99.99
2019-05-23T02:32:25.865Z,99.99
2019-05-23T02:33:25.832Z,99.99
2019-05-23T02:34:25.803Z,99.99
2019-05-23T02:35:25.772Z,99.99
2019-05-23T02:36:25.742Z,99.99
2019-05-23T02:37:25.712Z,99.99
2019-05-23T02:38:25.683Z,99.99
2019-05-23T02:39:25.650Z,99.99
2019-05-23T02:40:25.619Z,99.99
2019-05-23T02:41:25.604Z,99.99
2019-05-23T02:42:25.555Z,99.99
2019-05-23T02:43:25.527Z,99.99
2019-05-23T02:44:25.538Z,99.99
2019-05-23T02:45:25.465Z,99.99
2019-05-23T02:46:25.451Z,99.99
2019-05-23T02:47:25.403Z,99.99
2019-05-23T02:48:25.376Z,99.99
2019-05-23T02:49:25.423Z,99.99
2019-05-23T02:50:25.403Z,99.99
2019-05-23T02:51:25.280Z,99.99
2019-05-23T02:52:25.247Z,99.99
2019-05-23T02:53:25.216Z,99.99
2019-05-23T02:54:25.187Z,99.99
2019-05-23T02:55:25.153Z,99.99
2019-05-23T02:56:25.122Z,99.99
2019-05-23T02:57:25.092Z,99.99
2019-05-23T02:58:25.062Z,99.99
2019-05-23T02:59:25.031Z,99.99
2019-05-23T03:00:24.999Z,99.99
2019-05-23T03:01:25.042Z,99.99
2019-05-23T03:02:24.938Z,99.99
2019-05-23T03:03:24.906Z,99.99
2019-05-23T03:04:24.881Z,99.99
2019-05-23T03:05:24.844Z,99.99
2019-05-23T03:06:24.814Z,99.99
2019-05-23T03:07:24.782Z,99.99
2019-05-23T03:08:24.753Z,99.99
2019-05-23T03:09:24.722Z,99.99
2019-05-23T03:10:24.700Z,99.99
2019-05-23T03:11:24.659Z,99.99
2019-05-23T03:12:25.448Z,99.99
2019-05-23T03:13:24.596Z,99.99
2019-05-23T03:14:24.564Z,99.99
2019-05-23T03:15:24.536Z,99.99
2019-05-23T03:16:24.517Z,99.99
2019-05-23T03:17:24.476Z,99.99
2019-05-23T03:18:24.439Z,99.99
2019-05-23T03:19:24.413Z,99.99
2019-05-23T03:20:24.378Z,99.99
2019-05-23T03:21:24.357Z,99.99
2019-05-23T03:22:24.321Z,99.99
2019-05-23T03:23:24.286Z,99.99
2019-05-23T03:24:24.268Z,99.99
2019-05-23T03:25:24.226Z,99.99
2019-05-23T03:26:24.194Z,99.99
2019-05-23T03:27:24.167Z,99.99
2019-05-23T03:28:24.130Z,99.99
2019-05-23T03:29:24.100Z,99.99
2019-05-23T03:30:24.070Z,99.99
2019-05-23T03:31:30.763Z,99.99
2019-05-23T03:32:24.009Z,99.99
2019-05-23T03:33:23.978Z,99.99
2019-05-23T03:34:23.949Z,99.99
2019-05-23T03:35:23.915Z,99.99
2019-05-23T03:36:23.884Z,99.99
2019-05-23T03:37:23.857Z,99.99
2019-05-23T03:38:23.824Z,99.99
2019-05-23T03:39:23.797Z,99.99
2019-05-23T03:40:23.766Z,99.99
2019-05-23T03:41:23.730Z,99.99
2019-05-23T03:42:23.702Z,99.99
2019-05-23T03:43:23.668Z,99.99
2019-05-23T03:44:23.640Z,99.99
2019-05-23T03:45:23.609Z,99.99
2019-05-23T03:46:23.575Z,99.99
2019-05-23T03:47:23.544Z,99.99
2019-05-23T03:48:23.515Z,99.99
2019-05-23T03:49:23.483Z,99.99
2019-05-23T03:50:23.451Z,99.99
2019-05-23T03:51:23.426Z,99.99
2019-05-23T03:52:23.389Z,99.99
2019-05-23T03:53:23.366Z,99.99
2019-05-23T03:54:23.328Z,99.99
2019-05-23T03:55:23.298Z,99.99
2019-05-23T03:56:23.268Z,99.99
2019-05-23T03:57:25.717Z,99.99
2019-05-23T03:58:23.210Z,99.99
2019-05-23T03:59:23.176Z,99.99
2019-05-23T04:00:23.153Z,99.99
2019-05-23T04:01:23.116Z,99.99
2019-05-23T04:02:23.086Z,99.99
2019-05-23T04:03:23.053Z,99.99
2019-05-23T04:04:23.023Z,99.99
2019-05-23T04:05:22.993Z,99.99
2019-05-23T04:06:22.963Z,99.99
2019-05-23T04:07:22.976Z,99.99
2019-05-23T04:08:22.904Z,99.99
2019-05-23T04:09:22.871Z,99.99
2019-05-23T04:10:22.843Z,99.99
2019-05-23T04:11:22.810Z,99.99
2019-05-23T04:12:22.783Z,99.99
2019-05-23T04:13:22.752Z,99.99
2019-05-23T04:14:22.720Z,99.99
2019-05-23T04:15:22.695Z,99.99
2019-05-23T04:16:22.659Z,99.99
2019-05-23T04:17:22.631Z,99.99
2019-05-23T04:18:22.601Z,99.99
2019-05-23T04:19:22.575Z,99.99
2019-05-23T04:20:22.544Z,99.99
2019-05-23T04:21:22.511Z,99.99
2019-05-23T04:22:22.484Z,99.99
2019-05-23T04:23:22.531Z,99.99
2019-05-23T04:24:22.418Z,99.99
2019-05-23T04:25:22.389Z,99.99
2019-05-23T04:26:22.360Z,99.99
2019-05-23T04:27:22.333Z,99.99
2019-05-23T04:28:22.299Z,99.99
2019-05-23T04:29:22.275Z,99.99
2019-05-23T04:30:22.241Z,99.99
2019-05-23T04:31:22.244Z,99.99
2019-05-23T04:32:22.181Z,99.99
2019-05-23T04:33:22.150Z,99.99
2019-05-23T04:34:22.120Z,99.99
2019-05-23T04:35:22.101Z,99.99
2019-05-23T04:36:22.066Z,99.99
2019-05-23T04:37:22.045Z,99.99
2019-05-23T04:38:22.014Z,99.99
2019-05-23T04:39:21.978Z,99.99
2019-05-23T04:40:21.952Z,99.99
2019-05-23T04:41:21.917Z,99.99
2019-05-23T04:42:21.888Z,99.99
2019-05-23T04:43:21.859Z,99.99
2019-05-23T04:44:21.830Z,99.99
2019-05-23T04:45:21.799Z,99.99
2019-05-23T04:46:21.777Z,99.99
2019-05-23T04:47:21.742Z,99.99
2019-05-23T04:48:21.713Z,99.99
2019-05-23T04:49:21.695Z,99.99
2019-05-23T04:50:21.656Z,99.99
2019-05-23T04:51:21.627Z,99.99
2019-05-23T04:52:21.597Z,99.99
2019-05-23T04:53:21.570Z,99.99
2019-05-23T04:54:21.540Z,99.99
2019-05-23T04:55:21.514Z,99.99
2019-05-23T04:56:21.485Z,99.99
2019-05-23T04:57:21.459Z,99.99
2019-05-23T04:58:21.428Z,99.99
2019-05-23T04:59:21.399Z,99.99
2019-05-23T05:00:21.370Z,99.99
2019-05-23T05:01:21.346Z,99.99
2019-05-23T05:02:26.464Z,99.99
2019-05-23T05:03:21.307Z,99.99
2019-05-23T05:04:21.261Z,99.99
2019-05-23T05:05:21.233Z,99.99
2019-05-23T05:06:21.207Z,99.99
2019-05-23T05:07:21.182Z,99.99
2019-05-23T05:08:21.151Z,99.99
2019-05-23T05:09:21.124Z,99.99
2019-05-23T05:10:21.093Z,99.99
2019-05-23T05:11:21.069Z,99.99
2019-05-23T05:12:21.042Z,99.99
2019-05-23T05:13:21.013Z,99.99
2019-05-23T05:14:20.990Z,99.99
2019-05-23T05:15:20.961Z,99.99
2019-05-23T05:16:20.933Z,99.99
2019-05-23T05:17:20.918Z,99.99
2019-05-23T05:18:20.878Z,99.99
2019-05-23T05:19:20.851Z,99.99
2019-05-23T05:20:20.825Z,99.99
2019-05-23T05:21:20.802Z,99.99
2019-05-23T05:22:20.773Z,99.99
2019-05-23T05:23:20.747Z,99.99
2019-05-23T05:24:20.721Z,99.99
2019-05-23T05:25:20.712Z,99.99
2019-05-23T05:26:20.678Z,99.99
2019-05-23T05:27:20.644Z,99.99
2019-05-23T05:28:20.617Z,99.99
2019-05-23T05:29:20.592Z,99.99
2019-05-23T05:30:20.569Z,99.99
2019-05-23T05:31:20.542Z,99.99
2019-05-23T05:32:20.521Z,99.99
2019-05-23T05:33:20.496Z,99.99
2019-05-23T05:34:20.475Z,99.99
2019-05-23T05:35:20.457Z,99.99
2019-05-23T05:36:20.427Z,99.99
2019-05-23T05:37:20.402Z,99.99
2019-05-23T05:38:20.377Z,99.99
2019-05-23T05:39:20.358Z,99.99
2019-05-23T05:40:20.342Z,99.99
2019-05-23T05:41:20.343Z,99.99
2019-05-23T05:42:20.291Z,99.99
2019-05-23T05:43:20.269Z,99.99
2019-05-23T05:44:20.274Z,99.99
2019-05-23T05:45:20.232Z,99.99
2019-05-23T05:46:20.205Z,99.99
2019-05-23T05:47:20.184Z,99.99
2019-05-23T05:48:20.161Z,99.99
2019-05-23T05:49:20.144Z,99.99
2019-05-23T05:50:20.119Z,99.99
2019-05-23T05:51:20.103Z,99.99
2019-05-23T05:52:20.076Z,99.99
2019-05-23T05:53:20.055Z,99.96
2019-05-23T05:54:20.033Z,99.99
2019-05-23T05:55:20.012Z,99.99
2019-05-23T05:56:19.994Z,99.99
2019-05-23T05:57:19.972Z,99.99
2019-05-23T05:58:19.949Z,99.99
2019-05-23T05:59:19.928Z,99.99
2019-05-23T06:00:19.916Z,99.99
2019-05-23T06:01:33.303Z,99.99
2019-05-23T06:02:19.912Z,99.99
2019-05-23T06:03:19.849Z,99.99
2019-05-23T06:04:19.822Z,99.99
2019-05-23T06:05:19.811Z,96.94
2019-05-23T06:06:19.784Z,98.00
2019-05-23T06:07:19.761Z,99.99
2019-05-23T06:08:19.737Z,99.99
2019-05-23T06:09:19.718Z,98.19
2019-05-23T06:10:19.698Z,98.86
2019-05-23T06:11:19.675Z,99.38
2019-05-23T06:12:19.653Z,99.99
2019-05-23T06:13:19.633Z,99.99
2019-05-23T06:14:19.625Z,99.38
2019-05-23T06:15:19.591Z,97.61
2019-05-23T06:16:19.574Z,96.08
2019-05-23T06:17:19.553Z,94.98
2019-05-23T06:18:19.526Z,92.91
2019-05-23T06:19:19.508Z,94.93
2019-05-23T06:20:19.487Z,93.82
2019-05-23T06:21:19.467Z,92.91
2019-05-23T06:22:19.446Z,87.92
2019-05-23T06:23:19.427Z,87.25
2019-05-23T06:24:37.802Z,86.14
2019-05-23T06:25:19.389Z,87.29
2019-05-23T06:26:19.370Z,86.66
2019-05-23T06:27:19.347Z,85.32
2019-05-23T06:28:19.327Z,86.28
2019-05-23T06:29:19.316Z,83.97
2019-05-23T06:30:19.285Z,84.51
2019-05-23T06:31:19.269Z,85.71
2019-05-23T06:32:19.247Z,87.54
2019-05-23T06:33:23.990Z,88.35
2019-05-23T06:34:19.218Z,86.57
2019-05-23T06:35:19.190Z,84.69
2019-05-23T06:36:19.169Z,83.11
2019-05-23T06:37:19.152Z,82.73
2019-05-23T06:38:19.132Z,83.69
2019-05-23T06:39:19.115Z,81.52
2019-05-23T06:40:19.163Z,81.27
2019-05-23T06:41:19.076Z,79.28
2019-05-23T06:42:19.064Z,77.31
2019-05-23T06:43:19.039Z,77.01
2019-05-23T06:44:19.059Z,75.24
2019-05-23T06:45:19.008Z,76.53
2019-05-23T06:46:18.991Z,75.28
2019-05-23T06:47:18.967Z,75.54
2019-05-23T06:48:18.952Z,75.96
2019-05-23T06:49:18.931Z,75.98
2019-05-23T06:50:18.911Z,77.29
2019-05-23T06:51:18.895Z,78.92
2019-05-23T06:52:18.903Z,78.73
2019-05-23T06:53:18.864Z,79.32
2019-05-23T06:54:18.839Z,82.24
2019-05-23T06:55:18.823Z,80.80
2019-05-23T06:56:18.811Z,81.23
2019-05-23T06:57:18.785Z,80.27
2019-05-23T06:58:18.815Z,80.76
2019-05-23T06:59:18.751Z,83.80
2019-05-23T07:00:18.734Z,84.75
2019-05-23T07:01:18.713Z,85.04
2019-05-23T07:02:18.697Z,85.61
2019-05-23T07:03:18.681Z,82.48
2019-05-23T07:04:18.656Z,77.71
2019-05-23T07:05:18.679Z,77.25
2019-05-23T07:06:18.621Z,80.05
2019-05-23T07:07:18.601Z,81.35
2019-05-23T07:08:18.583Z,84.05
2019-05-23T07:09:18.568Z,85.21
2019-05-23T07:10:18.571Z,86.11
2019-05-23T07:11:18.537Z,84.67
2019-05-23T07:12:18.517Z,82.03
2019-05-23T07:13:18.504Z,81.41
2019-05-23T07:14:18.537Z,82.31
2019-05-23T07:15:18.447Z,83.03
2019-05-23T07:16:18.431Z,77.44
2019-05-23T07:17:18.411Z,74.82
2019-05-23T07:18:18.392Z,72.52
2019-05-23T07:19:18.371Z,74.54
2019-05-23T07:20:18.361Z,72.00
2019-05-23T07:21:18.332Z,71.46
2019-05-23T07:22:19.557Z,71.59
2019-05-23T07:23:18.450Z,70.47
2019-05-23T07:24:18.272Z,66.52
2019-05-23T07:25:18.254Z,65.17
2019-05-23T07:26:18.236Z,65.11
2019-05-23T07:27:18.217Z,66.59
2019-05-23T07:28:18.196Z,65.81
2019-05-23T07:29:18.179Z,65.27
2019-05-23T07:30:18.159Z,65.08
2019-05-23T07:31:18.140Z,65.78
2019-05-23T07:32:18.133Z,66.40
2019-05-23T07:33:18.113Z,64.21
2019-05-23T07:34:18.089Z,63.43
2019-05-23T07:35:18.080Z,63.02
2019-05-23T07:36:18.053Z,62.31
2019-05-23T07:37:18.038Z,61.93
2019-05-23T07:38:18.030Z,62.02
2019-05-23T07:39:18.042Z,61.80
2019-05-23T07:40:17.993Z,64.21
2019-05-23T07:41:17.971Z,64.02
2019-05-23T07:42:17.951Z,62.09
2019-05-23T07:43:17.934Z,62.79
2019-05-23T07:44:18.015Z,62.02
2019-05-23T07:45:17.902Z,60.86
2019-05-23T07:46:17.884Z,59.78
2019-05-23T07:47:17.869Z,61.35
2019-05-23T07:48:17.858Z,60.00
2019-05-23T07:49:17.835Z,62.25
2019-05-23T07:50:17.817Z,60.03
2019-05-23T07:51:17.816Z,59.06
2019-05-23T07:52:17.789Z,60.06
2019-05-23T07:53:17.779Z,61.35
2019-05-23T07:54:17.751Z,59.32
2019-05-23T07:55:17.736Z,58.14
2019-05-23T07:56:17.721Z,59.71
2019-05-23T07:57:17.702Z,58.19
2019-05-23T07:58:17.689Z,56.65
2019-05-23T07:59:17.669Z,55.68
2019-05-23T08:00:17.651Z,55.78
2019-05-23T08:01:17.635Z,54.69
2019-05-23T08:02:17.619Z,57.04
2019-05-23T08:03:17.603Z,54.91
2019-05-23T08:04:22.073Z,55.10
2019-05-23T08:05:17.569Z,54.40
2019-05-23T08:06:17.557Z,55.10
2019-05-23T08:07:17.542Z,55.40
2019-05-23T08:08:17.538Z,55.42
2019-05-23T08:09:17.505Z,55.26
2019-05-23T08:10:32.547Z,54.90
2019-05-23T08:11:17.473Z,54.71
2019-05-23T08:12:17.458Z,53.47
2019-05-23T08:13:17.446Z,51.13
2019-05-23T08:14:17.428Z,53.09
2019-05-23T08:15:17.413Z,51.51
2019-05-23T08:16:17.395Z,51.78
2019-05-23T08:17:17.380Z,53.01
2019-05-23T08:18:17.364Z,52.04
2019-05-23T08:19:19.622Z,52.36
2019-05-23T08:20:17.331Z,52.81
2019-05-23T08:21:17.317Z,54.19
2019-05-23T08:22:17.302Z,52.17
2019-05-23T08:23:17.287Z,53.25
2019-05-23T08:24:17.271Z,52.17
2019-05-23T08:25:17.257Z,49.85
2019-05-23T08:26:17.239Z,51.46
2019-05-23T08:27:17.224Z,51.25
2019-05-23T08:28:17.208Z,51.10
2019-05-23T08:29:26.443Z,50.74
2019-05-23T08:30:17.177Z,49.49
2019-05-23T08:31:17.162Z,48.47
2019-05-23T08:32:17.145Z,48.79
2019-05-23T08:33:17.200Z,49.46
2019-05-23T08:34:17.131Z,48.47
2019-05-23T08:35:18.161Z,49.99
2019-05-23T08:36:17.086Z,51.39
2019-05-23T08:37:17.074Z,52.87
2019-05-23T08:38:17.056Z,51.08
2019-05-23T08:39:17.104Z,48.44
2019-05-23T08:40:17.038Z,48.81
2019-05-23T08:41:17.010Z,49.32
2019-05-23T08:42:16.994Z,49.44
2019-05-23T08:43:16.979Z,46.32
2019-05-23T08:44:16.963Z,46.49
2019-05-23T08:45:16.955Z,47.55
2019-05-23T08:46:16.932Z,46.95
2019-05-23T08:47:16.918Z,48.69
2019-05-23T08:48:16.901Z,48.97
2019-05-23T08:49:16.886Z,50.52
2019-05-23T08:50:16.870Z,49.85
2019-05-23T08:51:16.856Z,50.76
2019-05-23T08:52:16.844Z,50.18
2019-05-23T08:53:16.823Z,49.15
2019-05-23T08:54:16.807Z,48.54
2019-05-23T08:55:16.843Z,48.71
2019-05-23T08:56:19.575Z,50.84
2019-05-23T08:57:16.768Z,52.34
2019-05-23T08:58:17.371Z,50.31
2019-05-23T08:59:16.734Z,47.31
2019-05-23T09:00:16.716Z,48.47
2019-05-23T09:01:16.735Z,48.90
2019-05-23T09:02:16.688Z,47.84
2019-05-23T09:03:16.672Z,46.26
2019-05-23T09:04:16.660Z,48.66
2019-05-23T09:05:16.646Z,47.86
2019-05-23T09:06:16.626Z,50.12
2019-05-23T09:07:16.642Z,51.50
2019-05-23T09:08:17.354Z,48.47
2019-05-23T09:09:29.322Z,48.47
2019-05-23T09:10:16.565Z,49.82
2019-05-23T09:11:16.554Z,48.57
2019-05-23T09:12:16.578Z,47.89
2019-05-23T09:13:16.523Z,49.15
2019-05-23T09:14:16.507Z,49.60
2019-05-23T09:15:16.493Z,50.74
2019-05-23T09:16:16.477Z,50.93
2019-05-23T09:17:16.462Z,50.84
2019-05-23T09:18:16.448Z,50.84
2019-05-23T09:19:16.472Z,52.58
2019-05-23T09:20:16.417Z,51.10
2019-05-23T09:21:16.403Z,51.59
2019-05-23T09:22:16.386Z,52.29
2019-05-23T09:23:16.373Z,50.28
2019-05-23T09:24:16.361Z,50.67
2019-05-23T09:25:16.342Z,51.06
2019-05-23T09:26:16.328Z,51.56
2019-05-23T09:27:16.316Z,50.92
2019-05-23T09:28:16.299Z,48.76
2019-05-23T09:29:16.284Z,49.32
2019-05-23T09:30:16.267Z,49.90
2019-05-23T09:31:16.256Z,51.54
2019-05-23T09:32:16.237Z,49.92
2019-05-23T09:33:16.224Z,48.95
2019-05-23T09:34:16.216Z,49.15
2019-05-23T09:35:20.768Z,47.21
2019-05-23T09:36:16.230Z,49.19
2019-05-23T09:37:16.165Z,47.96
2019-05-23T09:38:16.155Z,48.64
2019-05-23T09:39:16.144Z,49.61
2019-05-23T09:40:16.129Z,47.57
2019-05-23T09:41:16.125Z,48.03
2019-05-23T09:42:16.092Z,47.50
2019-05-23T09:43:16.157Z,47.04
2019-05-23T09:44:16.063Z,47.74
2019-05-23T09:45:16.049Z,47.79
2019-05-23T09:46:16.035Z,50.14
2019-05-23T09:47:16.024Z,50.33
2019-05-23T09:48:16.005Z,50.82
2019-05-23T09:49:15.993Z,50.62
2019-05-23T09:50:15.976Z,48.49
2019-05-23T09:51:16.026Z,46.63
2019-05-23T09:52:16.145Z,48.88
2019-05-23T09:53:15.936Z,50.70
2019-05-23T09:54:15.918Z,49.05
2019-05-23T09:55:15.902Z,49.75
2019-05-23T09:56:15.894Z,50.14
2019-05-23T09:57:15.875Z,48.57
2019-05-23T09:58:15.862Z,50.91
2019-05-23T09:59:15.849Z,52.00
2019-05-23T10:00:15.838Z,53.50
2019-05-23T10:01:15.817Z,50.92
2019-05-23T10:02:15.801Z,51.68
2019-05-23T10:03:15.786Z,49.77
2019-05-23T10:04:15.773Z,50.29
2019-05-23T10:05:15.756Z,48.03
2019-05-23T10:06:15.750Z,46.97
2019-05-23T10:07:15.726Z,47.84
2019-05-23T10:08:15.719Z,48.52
2019-05-23T10:09:15.697Z,50.33
2019-05-23T10:10:15.691Z,49.95
2019-05-23T10:11:15.672Z,51.01
2019-05-23T10:12:15.655Z,52.27
2019-05-23T10:13:15.639Z,50.52
2019-05-23T10:14:15.622Z,50.26
2019-05-23T10:15:15.615Z,48.69
2019-05-23T10:16:15.602Z,48.27
2019-05-23T10:17:15.580Z,48.59
2019-05-23T10:18:15.566Z,49.46
2019-05-23T10:19:15.549Z,50.98
2019-05-23T10:20:15.543Z,51.87
2019-05-23T10:21:15.519Z,53.69
2019-05-23T10:22:15.507Z,53.61
2019-05-23T10:23:15.489Z,54.25
2019-05-23T10:24:15.475Z,52.99
2019-05-23T10:25:15.461Z,49.56
2019-05-23T10:26:15.445Z,48.81
2019-05-23T10:27:15.429Z,47.96
2019-05-23T10:28:15.416Z,50.19
2019-05-23T10:29:15.403Z,48.88
2019-05-23T10:30:15.383Z,49.46
2019-05-23T10:31:15.370Z,49.10
2019-05-23T10:32:15.356Z,48.35
2019-05-23T10:33:15.344Z,47.77
2019-05-23T10:34:15.369Z,48.57
2019-05-23T10:35:15.311Z,49.05
2019-05-23T10:36:15.296Z,46.04
2019-05-23T10:37:15.280Z,47.89
2019-05-23T10:38:15.266Z,49.05
2019-05-23T10:39:15.252Z,47.13
2019-05-23T10:40:15.236Z,47.03
2019-05-23T10:41:15.222Z,45.78
2019-05-23T10:42:15.205Z,47.91
2019-05-23T10:43:15.192Z,47.45
2019-05-23T10:44:15.177Z,48.47
2019-05-23T10:45:15.165Z,48.61
2019-05-23T10:46:15.148Z,48.42
2019-05-23T10:47:15.136Z,48.54
2019-05-23T10:48:15.120Z,49.49
2019-05-23T10:49:15.106Z,48.71
2019-05-23T10:50:15.091Z,48.64
2019-05-23T10:51:15.076Z,47.57
2019-05-23T10:52:15.063Z,49.15
2019-05-23T10:53:15.049Z,47.40
2019-05-23T10:54:15.032Z,44.96
2019-05-23T10:55:15.017Z,46.26
2019-05-23T10:56:20.042Z,48.01
2019-05-23T10:57:14.988Z,49.39
2019-05-23T10:58:14.978Z,47.20
2019-05-23T10:59:14.967Z,44.93
2019-05-23T11:00:14.946Z,44.23
2019-05-23T11:01:14.933Z,45.68
2019-05-23T11:02:14.916Z,46.02
2019-05-23T11:03:14.903Z,45.44
2019-05-23T11:04:14.954Z,47.30
2019-05-23T11:05:14.884Z,45.20
2019-05-23T11:06:16.784Z,46.07
2019-05-23T11:07:14.846Z,42.77
2019-05-23T11:08:14.835Z,44.05
2019-05-23T11:09:14.827Z,44.92
2019-05-23T11:10:14.798Z,45.43
2019-05-23T11:11:15.176Z,43.88
2019-05-23T11:12:14.770Z,43.98
2019-05-23T11:13:14.754Z,41.36
2019-05-23T11:14:14.749Z,43.02
2019-05-23T11:15:14.725Z,42.54
2019-05-23T11:16:14.712Z,42.99
2019-05-23T11:17:14.696Z,42.17
2019-05-23T11:18:14.685Z,45.81
2019-05-23T11:19:14.667Z,45.20
2019-05-23T11:20:14.656Z,46.94
2019-05-23T11:21:14.642Z,46.67
2019-05-23T11:22:14.623Z,47.86
2019-05-23T11:23:14.607Z,44.42
2019-05-23T11:24:14.641Z,44.15
2019-05-23T11:25:14.586Z,42.33
2019-05-23T11:26:14.569Z,43.80
2019-05-23T11:27:14.575Z,40.58
2019-05-23T11:28:14.544Z,41.36
2019-05-23T11:29:14.523Z,41.72
2019-05-23T11:30:14.508Z,42.69
2019-05-23T11:31:14.492Z,41.33
2019-05-23T11:32:14.538Z,42.61
2019-05-23T11:33:14.463Z,41.05
2019-05-23T11:34:14.446Z,41.16
2019-05-23T11:35:14.433Z,42.52
2019-05-23T11:36:14.419Z,41.28
2019-05-23T11:37:14.408Z,40.31
2019-05-23T11:38:14.389Z,39.04
2019-05-23T11:39:14.376Z,39.36
2019-05-23T11:40:14.405Z,39.03
2019-05-23T11:41:14.348Z,41.20
2019-05-23T11:42:14.335Z,41.28
2019-05-23T11:43:14.318Z,41.10
2019-05-23T11:44:14.304Z,39.24
2019-05-23T11:45:14.291Z,39.94
2019-05-23T11:46:14.274Z,38.39
2019-05-23T11:47:14.263Z,38.96
2019-05-23T11:48:16.171Z,38.29
2019-05-23T11:49:14.234Z,39.57
2019-05-23T11:50:14.220Z,40.15
2019-05-23T11:51:14.209Z,38.67
2019-05-23T11:52:14.543Z,38.96
2019-05-23T11:53:14.178Z,38.54
2019-05-23T11:54:14.166Z,40.56
2019-05-23T11:55:14.151Z,40.56
2019-05-23T11:56:14.133Z,40.46
2019-05-23T11:57:14.118Z,41.05
2019-05-23T11:58:14.104Z,41.12
2019-05-23T11:59:14.094Z,41.88
2019-05-23T12:00:14.076Z,41.30
2019-05-23T12:01:20.545Z,39.95
2019-05-23T12:02:14.045Z,40.54
2019-05-23T12:03:14.032Z,39.61
2019-05-23T12:04:14.018Z,40.31
2019-05-23T12:05:14.005Z,39.06
2019-05-23T12:06:13.989Z,40.26
2019-05-23T12:07:13.974Z,42.66
2019-05-23T12:08:13.959Z,43.29
2019-05-23T12:09:13.947Z,40.33
2019-05-23T12:10:13.932Z,40.05
2019-05-23T12:11:13.974Z,38.32
2019-05-23T12:12:13.901Z,38.04
2019-05-23T12:13:13.887Z,39.20
2019-05-23T12:14:13.872Z,39.41
2019-05-23T12:15:13.860Z,37.37
2019-05-23T12:16:13.841Z,37.88
2019-05-23T12:17:14.170Z,37.60
2019-05-23T12:18:13.812Z,37.72
2019-05-23T12:19:13.800Z,36.05
2019-05-23T12:20:13.781Z,36.05
2019-05-23T12:21:13.769Z,35.86
2019-05-23T12:22:13.754Z,36.16
2019-05-23T12:23:13.737Z,35.58
2019-05-23T12:24:13.721Z,36.16
2019-05-23T12:25:22.205Z,36.08
2019-05-23T12:26:13.693Z,35.21
2019-05-23T12:27:13.680Z,35.80
2019-05-23T12:28:13.703Z,35.00
2019-05-23T12:29:13.650Z,34.22
2019-05-23T12:30:13.636Z,34.98
2019-05-23T12:31:13.628Z,35.97
2019-05-23T12:32:13.616Z,37.64
2019-05-23T12:33:13.630Z,36.38
2019-05-23T12:34:13.578Z,35.96
2019-05-23T12:35:13.576Z,36.40
2019-05-23T12:36:13.553Z,37.08
2019-05-23T12:37:18.857Z,37.96
2019-05-23T12:38:13.544Z,38.32
2019-05-23T12:39:13.507Z,38.78
2019-05-23T12:40:13.495Z,39.57
2019-05-23T12:41:13.484Z,37.63
2019-05-23T12:42:13.468Z,38.31
2019-05-23T12:43:13.448Z,40.05
2019-05-23T12:44:17.128Z,38.50
2019-05-23T12:45:13.446Z,38.81
2019-05-23T12:46:13.451Z,38.54
2019-05-23T12:47:13.390Z,36.63
2019-05-23T12:48:13.374Z,36.55
2019-05-23T12:49:13.359Z,34.63
2019-05-23T12:50:13.347Z,34.59
2019-05-23T12:51:13.333Z,36.02
2019-05-23T12:52:13.314Z,39.57